sensor_id;sensor_type;location;lat;lon;timestamp;temperature;humidity
16736;DHT22;17990;49.548;9.730;2022-09-23T00:00:58;5.70;99.90
16736;DHT22;17990;49.548;9.730;2022-09-23T00:03:27;5.60;99.90
16736;DHT22;17990;49.548;9.730;2022-09-23T00:05:59;5.60;99.90
16736;DHT22;17990;49.548;9.730;2022-09-23T00:08:26;5.50;99.90
16736;DHT22;17990;49.548;9.730;2022-09-23T00:10:53;5.40;99.90
16736;DHT22;17990;49.548;9.730;2022-09-23T00:13:23;5.40;99.90
16736;DHT22;17990;49.548;9.730;2022-09-23T00:15:51;5.30;99.90
16736;DHT22;17990;49.548;9.730;2022-09-23T00:18:18;5.30;99.90
16736;DHT22;17990;49.548;9.730;2022-09-23T00:20:46;5.30;99.90
16736;DHT22;17990;49.548;9.730;2022-09-23T00:23:13;5.40;99.90
16736;DHT22;17990;49.548;9.730;2022-09-23T00:25:40;5.30;99.90
16736;DHT22;17990;49.548;9.730;2022-09-23T00:28:07;5.30;99.90
16736;DHT22;17990;49.548;9.730;2022-09-23T00:30:35;5.20;99.90
16736;DHT22;17990;49.548;9.730;2022-09-23T00:33:02;5.10;99.90
16736;DHT22;17990;49.548;9.730;2022-09-23T00:35:29;5.10;99.90
16736;DHT22;17990;49.548;9.730;2022-09-23T00:37:56;5.00;99.90
16736;DHT22;17990;49.548;9.730;2022-09-23T00:40:23;4.90;99.90
16736;DHT22;17990;49.548;9.730;2022-09-23T00:42:50;4.90;99.90
16736;DHT22;17990;49.548;9.730;2022-09-23T00:45:17;4.90;99.90
16736;DHT22;17990;49.548;9.730;2022-09-23T00:47:50;4.90;99.90
16736;DHT22;17990;49.548;9.730;2022-09-23T00:50:23;4.80;99.90
16736;DHT22;17990;49.548;9.730;2022-09-23T00:52:53;4.80;99.90
16736;DHT22;17990;49.548;9.730;2022-09-23T00:55:25;4.80;99.90
16736;DHT22;17990;49.548;9.730;2022-09-23T00:57:56;4.80;99.90
16736;DHT22;17990;49.548;9.730;2022-09-23T01:00:25;4.80;99.90
16736;DHT22;17990;49.548;9.730;2022-09-23T01:02:53;4.80;99.90
16736;DHT22;17990;49.548;9.730;2022-09-23T01:05:20;4.80;99.90
16736;DHT22;17990;49.548;9.730;2022-09-23T01:07:48;4.80;99.90
16736;DHT22;17990;49.548;9.730;2022-09-23T01:10:16;4.80;99.90
16736;DHT22;17990;49.548;9.730;2022-09-23T01:13:02;4.80;99.90
16736;DHT22;17990;49.548;9.730;2022-09-23T01:15:39;4.70;99.90
16736;DHT22;17990;49.548;9.730;2022-09-23T01:18:21;4.70;99.90
16736;DHT22;17990;49.548;9.730;2022-09-23T01:21:17;4.70;99.90
16736;DHT22;17990;49.548;9.730;2022-09-23T01:24:14;4.70;99.90
16736;DHT22;17990;49.548;9.730;2022-09-23T01:26:55;4.60;99.90
16736;DHT22;17990;49.548;9.730;2022-09-23T01:29:55;4.60;99.90
16736;DHT22;17990;49.548;9.730;2022-09-23T01:32:55;4.60;99.90
16736;DHT22;17990;49.548;9.730;2022-09-23T01:35:32;4.50;99.90
16736;DHT22;17990;49.548;9.730;2022-09-23T01:38:15;4.50;99.90
16736;DHT22;17990;49.548;9.730;2022-09-23T01:40:53;4.40;99.90
16736;DHT22;17990;49.548;9.730;2022-09-23T01:43:33;4.40;99.90
16736;DHT22;17990;49.548;9.730;2022-09-23T01:46:07;4.40;99.90
16736;DHT22;17990;49.548;9.730;2022-09-23T01:48:40;4.40;99.90
16736;DHT22;17990;49.548;9.730;2022-09-23T01:51:16;4.40;99.90
16736;DHT22;17990;49.548;9.730;2022-09-23T01:53:48;4.40;99.90
16736;DHT22;17990;49.548;9.730;2022-09-23T01:56:22;4.50;99.90
16736;DHT22;17990;49.548;9.730;2022-09-23T01:58:55;4.40;99.90
16736;DHT22;17990;49.548;9.730;2022-09-23T02:01:32;4.40;99.90
16736;DHT22;17990;49.548;9.730;2022-09-23T02:04:07;4.40;99.90
16736;DHT22;17990;49.548;9.730;2022-09-23T02:06:41;4.30;99.90
16736;DHT22;17990;49.548;9.730;2022-09-23T02:09:13;4.30;99.90
16736;DHT22;17990;49.548;9.730;2022-09-23T02:11:44;4.40;99.90
16736;DHT22;17990;49.548;9.730;2022-09-23T02:14:15;4.30;99.90
16736;DHT22;17990;49.548;9.730;2022-09-23T02:16:48;4.30;99.90
16736;DHT22;17990;49.548;9.730;2022-09-23T02:19:21;4.30;99.90
16736;DHT22;17990;49.548;9.730;2022-09-23T02:21:54;4.30;99.90
16736;DHT22;17990;49.548;9.730;2022-09-23T02:24:28;4.20;99.90
16736;DHT22;17990;49.548;9.730;2022-09-23T02:27:05;4.20;99.90
16736;DHT22;17990;49.548;9.730;2022-09-23T02:29:44;4.20;99.90
16736;DHT22;17990;49.548;9.730;2022-09-23T02:32:18;4.30;99.90
16736;DHT22;17990;49.548;9.730;2022-09-23T02:34:57;4.30;99.90
16736;DHT22;17990;49.548;9.730;2022-09-23T02:37:35;4.20;99.90
16736;DHT22;17990;49.548;9.730;2022-09-23T02:40:13;4.20;99.90
16736;DHT22;17990;49.548;9.730;2022-09-23T02:42:48;4.20;99.90
16736;DHT22;17990;49.548;9.730;2022-09-23T02:45:22;4.10;99.90
16736;DHT22;17990;49.548;9.730;2022-09-23T02:47:52;4.20;99.90
16736;DHT22;17990;49.548;9.730;2022-09-23T02:50:22;4.10;99.90
16736;DHT22;17990;49.548;9.730;2022-09-23T02:52:48;4.10;99.90
16736;DHT22;17990;49.548;9.730;2022-09-23T02:55:17;4.10;99.90
16736;DHT22;17990;49.548;9.730;2022-09-23T02:57:45;4.10;99.90
16736;DHT22;17990;49.548;9.730;2022-09-23T03:00:13;4.10;99.90
16736;DHT22;17990;49.548;9.730;2022-09-23T03:03:04;4.00;99.90
16736;DHT22;17990;49.548;9.730;2022-09-23T03:05:49;4.10;99.90
16736;DHT22;17990;49.548;9.730;2022-09-23T03:08:29;4.00;99.90
16736;DHT22;17990;49.548;9.730;2022-09-23T03:11:05;4.00;99.90
16736;DHT22;17990;49.548;9.730;2022-09-23T03:13:42;4.00;99.90
16736;DHT22;17990;49.548;9.730;2022-09-23T03:16:21;4.00;99.90
16736;DHT22;17990;49.548;9.730;2022-09-23T03:18:56;4.00;99.90
16736;DHT22;17990;49.548;9.730;2022-09-23T03:21:32;4.00;99.90
16736;DHT22;17990;49.548;9.730;2022-09-23T03:24:04;4.00;99.90
16736;DHT22;17990;49.548;9.730;2022-09-23T03:26:35;4.00;99.90
16736;DHT22;17990;49.548;9.730;2022-09-23T03:29:06;4.00;99.90
16736;DHT22;17990;49.548;9.730;2022-09-23T03:31:37;4.00;99.90
16736;DHT22;17990;49.548;9.730;2022-09-23T03:34:12;4.00;99.90
16736;DHT22;17990;49.548;9.730;2022-09-23T03:36:45;4.00;99.90
16736;DHT22;17990;49.548;9.730;2022-09-23T03:39:23;4.10;99.90
16736;DHT22;17990;49.548;9.730;2022-09-23T03:41:56;4.20;99.90
16736;DHT22;17990;49.548;9.730;2022-09-23T03:44:24;4.20;99.90
16736;DHT22;17990;49.548;9.730;2022-09-23T03:46:53;4.20;99.90
16736;DHT22;17990;49.548;9.730;2022-09-23T03:49:27;4.20;99.90
16736;DHT22;17990;49.548;9.730;2022-09-23T03:51:58;4.30;99.90
16736;DHT22;17990;49.548;9.730;2022-09-23T03:54:26;4.30;99.90
16736;DHT22;17990;49.548;9.730;2022-09-23T03:56:54;4.30;99.90
16736;DHT22;17990;49.548;9.730;2022-09-23T03:59:22;4.40;99.90
16736;DHT22;17990;49.548;9.730;2022-09-23T04:01:49;4.50;99.90
16736;DHT22;17990;49.548;9.730;2022-09-23T04:04:16;4.50;99.90
16736;DHT22;17990;49.548;9.730;2022-09-23T04:06:44;4.50;99.90
16736;DHT22;17990;49.548;9.730;2022-09-23T04:09:12;4.60;99.90
16736;DHT22;17990;49.548;9.730;2022-09-23T04:11:39;4.70;99.90
16736;DHT22;17990;49.548;9.730;2022-09-23T04:14:06;4.70;99.90
16736;DHT22;17990;49.548;9.730;2022-09-23T04:16:34;4.80;99.90
16736;DHT22;17990;49.548;9.730;2022-09-23T04:19:01;4.80;99.90
16736;DHT22;17990;49.548;9.730;2022-09-23T04:21:28;4.80;99.90
16736;DHT22;17990;49.548;9.730;2022-09-23T04:23:56;4.80;99.90
16736;DHT22;17990;49.548;9.730;2022-09-23T04:26:24;4.80;99.90
16736;DHT22;17990;49.548;9.730;2022-09-23T04:28:51;4.80;99.90
16736;DHT22;17990;49.548;9.730;2022-09-23T04:31:19;4.70;99.90
16736;DHT22;17990;49.548;9.730;2022-09-23T04:33:48;4.70;99.90
16736;DHT22;17990;49.548;9.730;2022-09-23T04:36:15;4.70;99.90
16736;DHT22;17990;49.548;9.730;2022-09-23T04:38:42;4.80;99.90
16736;DHT22;17990;49.548;9.730;2022-09-23T04:41:10;4.80;99.90
16736;DHT22;17990;49.548;9.730;2022-09-23T04:43:38;4.90;99.90
16736;DHT22;17990;49.548;9.730;2022-09-23T04:46:07;5.00;99.90
16736;DHT22;17990;49.548;9.730;2022-09-23T04:48:37;4.90;99.90
16736;DHT22;17990;49.548;9.730;2022-09-23T04:51:06;5.00;99.90
16736;DHT22;17990;49.548;9.730;2022-09-23T04:53:34;5.00;99.90
16736;DHT22;17990;49.548;9.730;2022-09-23T04:56:04;5.00;99.90
16736;DHT22;17990;49.548;9.730;2022-09-23T04:58:34;5.00;99.90
16736;DHT22;17990;49.548;9.730;2022-09-23T05:01:09;5.10;99.90
16736;DHT22;17990;49.548;9.730;2022-09-23T05:03:37;5.10;99.90
16736;DHT22;17990;49.548;9.730;2022-09-23T05:06:04;5.00;99.90
16736;DHT22;17990;49.548;9.730;2022-09-23T05:08:32;5.00;99.90
16736;DHT22;17990;49.548;9.730;2022-09-23T05:11:01;5.10;99.90
16736;DHT22;17990;49.548;9.730;2022-09-23T05:13:30;5.10;99.90
16736;DHT22;17990;49.548;9.730;2022-09-23T05:15:57;5.10;99.90
16736;DHT22;17990;49.548;9.730;2022-09-23T05:18:27;5.20;99.90
16736;DHT22;17990;49.548;9.730;2022-09-23T05:20:54;5.10;99.90
16736;DHT22;17990;49.548;9.730;2022-09-23T05:23:21;5.20;99.90
16736;DHT22;17990;49.548;9.730;2022-09-23T05:25:48;5.10;99.90
16736;DHT22;17990;49.548;9.730;2022-09-23T05:28:20;5.10;99.90
16736;DHT22;17990;49.548;9.730;2022-09-23T05:30:47;5.10;99.90
16736;DHT22;17990;49.548;9.730;2022-09-23T05:33:14;5.10;99.90
16736;DHT22;17990;49.548;9.730;2022-09-23T05:35:46;5.20;99.90
16736;DHT22;17990;49.548;9.730;2022-09-23T05:38:14;5.20;99.90
16736;DHT22;17990;49.548;9.730;2022-09-23T05:40:42;5.30;99.90
16736;DHT22;17990;49.548;9.730;2022-09-23T05:43:09;5.30;99.90
16736;DHT22;17990;49.548;9.730;2022-09-23T05:45:36;5.30;99.90
16736;DHT22;17990;49.548;9.730;2022-09-23T05:48:03;5.30;99.90
16736;DHT22;17990;49.548;9.730;2022-09-23T05:50:30;5.40;99.90
16736;DHT22;17990;49.548;9.730;2022-09-23T05:52:59;5.40;99.90
16736;DHT22;17990;49.548;9.730;2022-09-23T05:55:25;5.50;99.90
16736;DHT22;17990;49.548;9.730;2022-09-23T05:57:53;5.50;99.90
16736;DHT22;17990;49.548;9.730;2022-09-23T06:00:20;5.50;99.90
16736;DHT22;17990;49.548;9.730;2022-09-23T06:02:47;5.50;99.90
16736;DHT22;17990;49.548;9.730;2022-09-23T06:05:14;5.60;99.90
16736;DHT22;17990;49.548;9.730;2022-09-23T06:07:41;5.60;99.90
16736;DHT22;17990;49.548;9.730;2022-09-23T06:10:10;5.80;99.90
16736;DHT22;17990;49.548;9.730;2022-09-23T06:12:37;5.90;99.90
16736;DHT22;17990;49.548;9.730;2022-09-23T06:15:05;5.90;99.90
16736;DHT22;17990;49.548;9.730;2022-09-23T06:17:33;5.90;99.90
16736;DHT22;17990;49.548;9.730;2022-09-23T06:20:00;5.90;99.90
16736;DHT22;17990;49.548;9.730;2022-09-23T06:22:27;5.90;99.90
16736;DHT22;17990;49.548;9.730;2022-09-23T06:24:54;5.90;99.90
16736;DHT22;17990;49.548;9.730;2022-09-23T06:27:23;5.90;99.90
16736;DHT22;17990;49.548;9.730;2022-09-23T06:29:49;5.80;99.90
16736;DHT22;17990;49.548;9.730;2022-09-23T06:32:17;5.70;99.90
16736;DHT22;17990;49.548;9.730;2022-09-23T06:34:44;5.70;99.90
16736;DHT22;17990;49.548;9.730;2022-09-23T06:37:11;5.70;99.90
16736;DHT22;17990;49.548;9.730;2022-09-23T06:39:38;5.80;99.90
16736;DHT22;17990;49.548;9.730;2022-09-23T06:42:05;5.80;99.90
16736;DHT22;17990;49.548;9.730;2022-09-23T06:44:34;5.90;99.90
16736;DHT22;17990;49.548;9.730;2022-09-23T06:47:01;5.90;99.90
16736;DHT22;17990;49.548;9.730;2022-09-23T06:49:27;6.00;99.90
16736;DHT22;17990;49.548;9.730;2022-09-23T06:51:55;5.80;99.90
16736;DHT22;17990;49.548;9.730;2022-09-23T06:54:22;5.90;99.90
16736;DHT22;17990;49.548;9.730;2022-09-23T06:56:52;6.00;99.90
16736;DHT22;17990;49.548;9.730;2022-09-23T06:59:19;6.20;99.90
16736;DHT22;17990;49.548;9.730;2022-09-23T07:01:47;6.60;99.90
16736;DHT22;17990;49.548;9.730;2022-09-23T07:04:15;7.20;99.90
16736;DHT22;17990;49.548;9.730;2022-09-23T07:06:42;7.80;99.90
16736;DHT22;17990;49.548;9.730;2022-09-23T07:09:09;8.10;99.90
16736;DHT22;17990;49.548;9.730;2022-09-23T07:11:36;8.20;99.90
16736;DHT22;17990;49.548;9.730;2022-09-23T07:14:04;8.50;99.90
16736;DHT22;17990;49.548;9.730;2022-09-23T07:16:31;8.70;99.90
16736;DHT22;17990;49.548;9.730;2022-09-23T07:18:59;8.60;99.90
16736;DHT22;17990;49.548;9.730;2022-09-23T07:21:27;8.60;99.90
16736;DHT22;17990;49.548;9.730;2022-09-23T07:23:53;8.70;99.90
16736;DHT22;17990;49.548;9.730;2022-09-23T07:26:23;9.30;99.90
16736;DHT22;17990;49.548;9.730;2022-09-23T07:28:53;9.80;99.90
16736;DHT22;17990;49.548;9.730;2022-09-23T07:31:21;10.30;99.90
16736;DHT22;17990;49.548;9.730;2022-09-23T07:33:48;10.90;99.90
16736;DHT22;17990;49.548;9.730;2022-09-23T07:36:17;11.20;99.90
16736;DHT22;17990;49.548;9.730;2022-09-23T07:38:45;11.20;99.90
16736;DHT22;17990;49.548;9.730;2022-09-23T07:41:14;11.30;99.90
16736;DHT22;17990;49.548;9.730;2022-09-23T07:43:43;11.70;99.90
16736;DHT22;17990;49.548;9.730;2022-09-23T07:46:13;11.90;99.90
16736;DHT22;17990;49.548;9.730;2022-09-23T07:48:41;12.10;99.90
16736;DHT22;17990;49.548;9.730;2022-09-23T07:51:10;11.70;99.90
16736;DHT22;17990;49.548;9.730;2022-09-23T07:53:39;10.80;99.90
16736;DHT22;17990;49.548;9.730;2022-09-23T07:56:06;10.70;99.90
16736;DHT22;17990;49.548;9.730;2022-09-23T07:58:33;10.70;99.90
16736;DHT22;17990;49.548;9.730;2022-09-23T08:01:03;11.30;99.90
16736;DHT22;17990;49.548;9.730;2022-09-23T08:03:32;11.60;99.90
16736;DHT22;17990;49.548;9.730;2022-09-23T08:06:04;11.80;99.90
16736;DHT22;17990;49.548;9.730;2022-09-23T08:08:32;12.00;99.90
16736;DHT22;17990;49.548;9.730;2022-09-23T08:11:02;11.80;99.90
16736;DHT22;17990;49.548;9.730;2022-09-23T08:13:29;11.80;99.90
16736;DHT22;17990;49.548;9.730;2022-09-23T08:15:57;11.80;99.90
16736;DHT22;17990;49.548;9.730;2022-09-23T08:18:25;11.50;99.90
16736;DHT22;17990;49.548;9.730;2022-09-23T08:20:52;11.40;99.90
16736;DHT22;17990;49.548;9.730;2022-09-23T08:23:19;11.20;99.90
16736;DHT22;17990;49.548;9.730;2022-09-23T08:25:46;11.00;99.90
16736;DHT22;17990;49.548;9.730;2022-09-23T08:28:15;11.00;99.90
16736;DHT22;17990;49.548;9.730;2022-09-23T08:30:44;11.00;99.90
16736;DHT22;17990;49.548;9.730;2022-09-23T08:33:14;11.50;99.90
16736;DHT22;17990;49.548;9.730;2022-09-23T08:35:41;11.80;99.90
16736;DHT22;17990;49.548;9.730;2022-09-23T08:38:08;12.10;99.90
16736;DHT22;17990;49.548;9.730;2022-09-23T08:40:37;12.20;99.90
16736;DHT22;17990;49.548;9.730;2022-09-23T08:43:05;12.40;99.90
16736;DHT22;17990;49.548;9.730;2022-09-23T08:45:34;12.40;99.90
16736;DHT22;17990;49.548;9.730;2022-09-23T08:48:06;12.50;99.90
16736;DHT22;17990;49.548;9.730;2022-09-23T08:50:39;12.50;99.90
16736;DHT22;17990;49.548;9.730;2022-09-23T08:53:13;12.50;99.90
16736;DHT22;17990;49.548;9.730;2022-09-23T08:55:48;12.60;99.90
16736;DHT22;17990;49.548;9.730;2022-09-23T08:58:29;12.50;99.90
16736;DHT22;17990;49.548;9.730;2022-09-23T09:01:18;12.30;99.90
16736;DHT22;17990;49.548;9.730;2022-09-23T09:03:50;12.60;99.90
16736;DHT22;17990;49.548;9.730;2022-09-23T09:06:21;12.90;99.90
16736;DHT22;17990;49.548;9.730;2022-09-23T09:08:55;13.20;99.90
16736;DHT22;17990;49.548;9.730;2022-09-23T09:11:31;13.40;99.90
16736;DHT22;17990;49.548;9.730;2022-09-23T09:14:04;13.30;99.90
16736;DHT22;17990;49.548;9.730;2022-09-23T09:16:48;13.10;99.90
16736;DHT22;17990;49.548;9.730;2022-09-23T09:19:20;13.10;99.90
16736;DHT22;17990;49.548;9.730;2022-09-23T09:21:52;13.20;99.90
16736;DHT22;17990;49.548;9.730;2022-09-23T09:24:25;13.40;99.90
16736;DHT22;17990;49.548;9.730;2022-09-23T09:26:55;13.80;99.90
16736;DHT22;17990;49.548;9.730;2022-09-23T09:29:26;14.00;99.90
16736;DHT22;17990;49.548;9.730;2022-09-23T09:31:58;14.20;99.90
16736;DHT22;17990;49.548;9.730;2022-09-23T09:34:32;14.60;99.90
16736;DHT22;17990;49.548;9.730;2022-09-23T09:37:03;14.80;99.90
16736;DHT22;17990;49.548;9.730;2022-09-23T09:39:33;15.00;99.90
16736;DHT22;17990;49.548;9.730;2022-09-23T09:42:01;15.00;99.90
16736;DHT22;17990;49.548;9.730;2022-09-23T09:44:33;15.20;99.90
16736;DHT22;17990;49.548;9.730;2022-09-23T09:47:16;15.30;99.90
16736;DHT22;17990;49.548;9.730;2022-09-23T09:49:55;15.20;99.90
16736;DHT22;17990;49.548;9.730;2022-09-23T09:52:27;15.50;99.90
16736;DHT22;17990;49.548;9.730;2022-09-23T09:55:16;15.80;99.90
16736;DHT22;17990;49.548;9.730;2022-09-23T09:57:53;16.10;99.90
16736;DHT22;17990;49.548;9.730;2022-09-23T10:00:35;16.30;99.90
16736;DHT22;17990;49.548;9.730;2022-09-23T10:03:23;16.40;99.90
16736;DHT22;17990;49.548;9.730;2022-09-23T10:05:52;16.50;99.90
16736;DHT22;17990;49.548;9.730;2022-09-23T10:08:25;16.70;99.90
16736;DHT22;17990;49.548;9.730;2022-09-23T10:11:00;16.90;99.90
16736;DHT22;17990;49.548;9.730;2022-09-23T10:13:29;17.10;99.90
16736;DHT22;17990;49.548;9.730;2022-09-23T10:15:56;17.30;99.90
16736;DHT22;17990;49.548;9.730;2022-09-23T10:18:29;17.50;99.90
16736;DHT22;17990;49.548;9.730;2022-09-23T10:21:05;17.60;99.90
16736;DHT22;17990;49.548;9.730;2022-09-23T10:23:38;17.60;99.90
16736;DHT22;17990;49.548;9.730;2022-09-23T10:26:07;17.70;99.90
16736;DHT22;17990;49.548;9.730;2022-09-23T10:28:45;17.80;99.90
16736;DHT22;17990;49.548;9.730;2022-09-23T10:31:17;18.00;99.90
16736;DHT22;17990;49.548;9.730;2022-09-23T10:33:52;18.10;99.90
16736;DHT22;17990;49.548;9.730;2022-09-23T10:36:22;18.10;99.90
16736;DHT22;17990;49.548;9.730;2022-09-23T10:38:51;18.30;99.90
16736;DHT22;17990;49.548;9.730;2022-09-23T10:41:47;18.30;99.90
16736;DHT22;17990;49.548;9.730;2022-09-23T10:44:51;18.30;99.90
16736;DHT22;17990;49.548;9.730;2022-09-23T10:47:48;18.30;99.90
16736;DHT22;17990;49.548;9.730;2022-09-23T10:50:30;18.30;99.90
16736;DHT22;17990;49.548;9.730;2022-09-23T10:53:06;18.40;99.90
16736;DHT22;17990;49.548;9.730;2022-09-23T10:56:10;18.50;99.90
16736;DHT22;17990;49.548;9.730;2022-09-23T10:59:19;18.60;99.90
16736;DHT22;17990;49.548;9.730;2022-09-23T11:02:00;18.70;99.90
16736;DHT22;17990;49.548;9.730;2022-09-23T11:07:51;18.60;99.90
16736;DHT22;17990;49.548;9.730;2022-09-23T11:10:47;18.80;99.90
16736;DHT22;17990;49.548;9.730;2022-09-23T11:13:46;18.90;99.20
16736;DHT22;17990;49.548;9.730;2022-09-23T11:16:29;18.90;99.30
16736;DHT22;17990;49.548;9.730;2022-09-23T11:19:25;19.00;99.00
16736;DHT22;17990;49.548;9.730;2022-09-23T11:22:17;19.10;98.30
16736;DHT22;17990;49.548;9.730;2022-09-23T11:25:21;19.10;97.90
16736;DHT22;17990;49.548;9.730;2022-09-23T11:28:17;19.20;97.90
16736;DHT22;17990;49.548;9.730;2022-09-23T11:31:02;19.20;98.00
16736;DHT22;17990;49.548;9.730;2022-09-23T11:33:44;19.30;97.70
16736;DHT22;17990;49.548;9.730;2022-09-23T11:36:25;19.30;97.40
16736;DHT22;17990;49.548;9.730;2022-09-23T11:38:54;19.30;96.80
16736;DHT22;17990;49.548;9.730;2022-09-23T11:41:26;19.30;96.40
16736;DHT22;17990;49.548;9.730;2022-09-23T11:43:59;19.30;96.60
16736;DHT22;17990;49.548;9.730;2022-09-23T11:46:33;19.50;95.90
16736;DHT22;17990;49.548;9.730;2022-09-23T11:49:08;19.40;96.10
16736;DHT22;17990;49.548;9.730;2022-09-23T11:51:45;19.50;96.20
16736;DHT22;17990;49.548;9.730;2022-09-23T11:54:24;19.50;95.60
16736;DHT22;17990;49.548;9.730;2022-09-23T11:56:59;19.70;94.70
16736;DHT22;17990;49.548;9.730;2022-09-23T11:59:34;19.70;94.10
16736;DHT22;17990;49.548;9.730;2022-09-23T12:02:13;19.70;94.60
16736;DHT22;17990;49.548;9.730;2022-09-23T12:04:48;19.60;94.30
16736;DHT22;17990;49.548;9.730;2022-09-23T12:07:25;19.60;94.00
16736;DHT22;17990;49.548;9.730;2022-09-23T12:09:57;19.60;93.70
16736;DHT22;17990;49.548;9.730;2022-09-23T12:12:36;19.80;93.60
16736;DHT22;17990;49.548;9.730;2022-09-23T12:15:32;19.80;93.30
16736;DHT22;17990;49.548;9.730;2022-09-23T12:24:26;20.00;92.70
16736;DHT22;17990;49.548;9.730;2022-09-23T12:27:02;19.80;93.10
16736;DHT22;17990;49.548;9.730;2022-09-23T12:29:34;19.80;92.80
16736;DHT22;17990;49.548;9.730;2022-09-23T12:32:02;20.00;92.90
16736;DHT22;17990;49.548;9.730;2022-09-23T12:34:39;20.10;92.80
16736;DHT22;17990;49.548;9.730;2022-09-23T12:37:08;20.20;92.70
16736;DHT22;17990;49.548;9.730;2022-09-23T12:39:37;20.30;92.60
16736;DHT22;17990;49.548;9.730;2022-09-23T12:42:09;20.60;92.60
16736;DHT22;17990;49.548;9.730;2022-09-23T12:44:42;20.90;92.60
16736;DHT22;17990;49.548;9.730;2022-09-23T12:47:37;21.00;91.70
16736;DHT22;17990;49.548;9.730;2022-09-23T12:56:26;20.90;91.50
16736;DHT22;17990;49.548;9.730;2022-09-23T12:59:13;20.90;91.10
16736;DHT22;17990;49.548;9.730;2022-09-23T13:01:48;20.90;91.20
16736;DHT22;17990;49.548;9.730;2022-09-23T13:04:33;21.00;91.60
16736;DHT22;17990;49.548;9.730;2022-09-23T13:07:27;21.20;91.70
16736;DHT22;17990;49.548;9.730;2022-09-23T13:10:06;21.20;91.70
16736;DHT22;17990;49.548;9.730;2022-09-23T13:12:37;21.10;91.70
16736;DHT22;17990;49.548;9.730;2022-09-23T13:15:20;21.30;91.90
16736;DHT22;17990;49.548;9.730;2022-09-23T13:18:23;21.60;92.00
16736;DHT22;17990;49.548;9.730;2022-09-23T13:20:58;21.70;91.20
16736;DHT22;17990;49.548;9.730;2022-09-23T13:23:26;21.60;91.30
16736;DHT22;17990;49.548;9.730;2022-09-23T13:25:56;21.40;91.00
16736;DHT22;17990;49.548;9.730;2022-09-23T13:28:31;21.40;91.40
16736;DHT22;17990;49.548;9.730;2022-09-23T13:31:03;21.30;91.20
16736;DHT22;17990;49.548;9.730;2022-09-23T13:33:37;21.40;91.10
16736;DHT22;17990;49.548;9.730;2022-09-23T13:36:11;21.50;91.00
16736;DHT22;17990;49.548;9.730;2022-09-23T13:38:39;21.70;91.60
16736;DHT22;17990;49.548;9.730;2022-09-23T13:41:10;21.70;91.10
16736;DHT22;17990;49.548;9.730;2022-09-23T13:43:41;21.80;91.10
16736;DHT22;17990;49.548;9.730;2022-09-23T13:46:11;21.80;91.00
16736;DHT22;17990;49.548;9.730;2022-09-23T13:48:45;21.60;90.70
16736;DHT22;17990;49.548;9.730;2022-09-23T13:51:19;21.40;91.00
16736;DHT22;17990;49.548;9.730;2022-09-23T13:53:51;21.40;91.20
16736;DHT22;17990;49.548;9.730;2022-09-23T13:56:20;21.40;91.20
16736;DHT22;17990;49.548;9.730;2022-09-23T13:58:48;21.40;91.30
16736;DHT22;17990;49.548;9.730;2022-09-23T14:01:22;21.50;90.90
16736;DHT22;17990;49.548;9.730;2022-09-23T14:03:56;21.60;90.70
16736;DHT22;17990;49.548;9.730;2022-09-23T14:06:24;21.40;91.00
16736;DHT22;17990;49.548;9.730;2022-09-23T14:08:53;21.40;90.80
16736;DHT22;17990;49.548;9.730;2022-09-23T14:11:27;21.20;90.90
16736;DHT22;17990;49.548;9.730;2022-09-23T14:13:55;21.20;91.70
16736;DHT22;17990;49.548;9.730;2022-09-23T14:16:25;21.40;91.70
16736;DHT22;17990;49.548;9.730;2022-09-23T14:18:57;21.20;91.40
16736;DHT22;17990;49.548;9.730;2022-09-23T14:21:27;21.20;92.20
16736;DHT22;17990;49.548;9.730;2022-09-23T14:23:54;21.30;92.10
16736;DHT22;17990;49.548;9.730;2022-09-23T14:26:22;21.10;92.00
16736;DHT22;17990;49.548;9.730;2022-09-23T14:28:50;21.10;91.90
16736;DHT22;17990;49.548;9.730;2022-09-23T14:31:17;21.10;92.10
16736;DHT22;17990;49.548;9.730;2022-09-23T14:33:44;21.10;92.10
16736;DHT22;17990;49.548;9.730;2022-09-23T14:36:15;21.30;91.60
16736;DHT22;17990;49.548;9.730;2022-09-23T14:39:03;21.40;91.10
16736;DHT22;17990;49.548;9.730;2022-09-23T14:41:34;21.70;90.80
16736;DHT22;17990;49.548;9.730;2022-09-23T14:44:05;21.70;90.20
16736;DHT22;17990;49.548;9.730;2022-09-23T14:46:34;21.70;90.40
16736;DHT22;17990;49.548;9.730;2022-09-23T14:49:06;21.80;90.10
16736;DHT22;17990;49.548;9.730;2022-09-23T14:51:46;21.70;89.90
16736;DHT22;17990;49.548;9.730;2022-09-23T14:54:29;21.60;90.40
16736;DHT22;17990;49.548;9.730;2022-09-23T14:56:59;21.60;90.70
16736;DHT22;17990;49.548;9.730;2022-09-23T14:59:27;21.70;91.00
16736;DHT22;17990;49.548;9.730;2022-09-23T15:01:59;21.80;91.00
16736;DHT22;17990;49.548;9.730;2022-09-23T15:04:29;21.80;91.00
16736;DHT22;17990;49.548;9.730;2022-09-23T15:07:01;21.70;90.30
16736;DHT22;17990;49.548;9.730;2022-09-23T15:09:32;21.50;90.70
16736;DHT22;17990;49.548;9.730;2022-09-23T15:12:04;21.30;90.90
16736;DHT22;17990;49.548;9.730;2022-09-23T15:14:35;21.10;91.20
16736;DHT22;17990;49.548;9.730;2022-09-23T15:17:11;20.80;91.60
16736;DHT22;17990;49.548;9.730;2022-09-23T15:19:41;20.60;91.60
16736;DHT22;17990;49.548;9.730;2022-09-23T15:22:09;20.40;91.60
16736;DHT22;17990;49.548;9.730;2022-09-23T15:24:40;20.30;91.90
16736;DHT22;17990;49.548;9.730;2022-09-23T15:27:18;20.10;92.10
16736;DHT22;17990;49.548;9.730;2022-09-23T15:30:10;20.10;92.30
16736;DHT22;17990;49.548;9.730;2022-09-23T15:32:40;20.00;92.90
16736;DHT22;17990;49.548;9.730;2022-09-23T15:35:10;19.90;93.10
16736;DHT22;17990;49.548;9.730;2022-09-23T15:37:41;19.80;93.90
16736;DHT22;17990;49.548;9.730;2022-09-23T15:40:17;19.80;94.30
16736;DHT22;17990;49.548;9.730;2022-09-23T15:42:46;19.60;94.80
16736;DHT22;17990;49.548;9.730;2022-09-23T15:45:17;19.50;95.00
16736;DHT22;17990;49.548;9.730;2022-09-23T15:47:47;19.40;95.30
16736;DHT22;17990;49.548;9.730;2022-09-23T15:50:15;19.30;95.70
16736;DHT22;17990;49.548;9.730;2022-09-23T15:52:44;19.30;95.90
16736;DHT22;17990;49.548;9.730;2022-09-23T15:55:14;19.20;96.10
16736;DHT22;17990;49.548;9.730;2022-09-23T15:57:41;19.10;96.10
16736;DHT22;17990;49.548;9.730;2022-09-23T16:00:09;19.10;95.90
16736;DHT22;17990;49.548;9.730;2022-09-23T16:02:38;19.00;96.00
16736;DHT22;17990;49.548;9.730;2022-09-23T16:05:08;18.90;96.40
16736;DHT22;17990;49.548;9.730;2022-09-23T16:07:50;18.90;96.70
16736;DHT22;17990;49.548;9.730;2022-09-23T16:10:19;18.80;96.70
16736;DHT22;17990;49.548;9.730;2022-09-23T16:12:48;18.80;96.50
16736;DHT22;17990;49.548;9.730;2022-09-23T16:15:17;18.70;96.70
16736;DHT22;17990;49.548;9.730;2022-09-23T16:17:46;18.50;96.90
16736;DHT22;17990;49.548;9.730;2022-09-23T16:20:13;18.40;97.10
16736;DHT22;17990;49.548;9.730;2022-09-23T16:22:43;18.30;97.40
16736;DHT22;17990;49.548;9.730;2022-09-23T16:25:16;18.20;97.80
16736;DHT22;17990;49.548;9.730;2022-09-23T16:27:44;18.10;98.10